Grafische Darstellung der letzten 24 Stunden.
Grafische Darstellung der letzten 48 Stunden.
Grafische Darstellung der letzten 72 Stunden.
Grafische Darstellung der letzten month.

Animated web cam image


Weather report/warning/Metars

Bierset, Belgium (EBLG) 50-39N 005-27E 178M
Jul 30, 2021 - 10:50 AM EDT / 2021.07.30 1450 UTC
Wind: from the SSW (210 degrees) at 20 MPH (17 KT):0
Visibility: greater than 7 mile(s):0
Sky conditions: mostly clear
Temperature: 73 F (23 C)
Dew Point: 55 F (13 C)
Relative Humidity: 53%
Pressure (altimeter): 29.74 in. Hg (1007 hPa)
ob: EBLG 301450Z 21017KT 9999 FEW044 23/13 Q1007 NOSIG
cycle: 15
Spa / La Sauveniere, Belgium (EBSP) 50-29N 005-55E 482M
Oct 28, 2010 - 10:00 AM EDT / 2010.10.28 1400 UTC
Visibility: greater than 7 mile(s):0
Sky conditions: mostly clear
Temperature: 95 F (35 C)
Heat index: 95.2 F (35.1 C):1
Dew Point: 60 F (16 C)
Relative Humidity: 32%
Pressure (altimeter): 29.85 in. Hg (1011 hPa)
ob: EBSP 281400Z /////KT 9999 FEW030 35/16 Q1011
cycle: 14